Flight Track Log - Related Links

Times and Time Zones

All times are in EDT time to prevent confusion due to time zone crossing. See the UPS378 flight status page for this flight to view local times or setup timezone preferences in your user account.

Time Position Orientation Groundspeed Altitude Reporting Facility
EDT Latitude Longitude Course Direction KTS MPH feet Rate Location/Type
Fri 09:29:49 AM 25.8050 -80.2860 87° East 27 31  Level FlightAware ADS-B
Fri 09:32:11 AM 25.8050 -80.2760 90° East 27 31 291 Level FlightAware ADS-B
Fri 09:32:28 AM 25.8040 -80.2760 180° South 24 28 686 Level FlightAware ADS-B
Fri 09:33:05 AM 25.8040 -80.2770 270° West 38 44 818 Level FlightAware ADS-B
Fri 09:33:22 AM 25.8040 -80.2860 270° West 125 144 1,412 Level FlightAware ADS-B
Fri 09:33:56 AM 25.8020 -80.3130 265° West 159 183 1,200 1,895 Climbing FlightAware ADS-B
Fri 09:34:19 AM 25.8000 -80.3330 264° West 177 204 1,800 1,404 Climbing FlightAware ADS-B
Fri 09:34:43 AM 25.7970 -80.3590 263° West 220 253 2,300 1,925 Climbing FlightAware ADS-B
Fri 09:35:12 AM 25.7940 -80.3910 264° West 232 267 3,500 2,357 Climbing FlightAware ADS-B
Fri 09:35:39 AM 25.7840 -80.4250 252° West 258 297 4,500 2,270 Climbing FlightAware ADS-B
Fri 09:35:49 AM 25.7760 -80.4320 218° Southwest 262 302 4,900 2,897 Climbing FlightAware ADS-B
Fri 09:36:08 AM 25.7530 -80.4390 195° South 275 316 5,900 2,933 Climbing FlightAware ADS-B
Fri 09:36:34 AM 25.7190 -80.4430 186° South 277 319 7,100 2,880 Climbing FlightAware ADS-B
Fri 09:36:58 AM 25.6890 -80.4460 185° South 282 325 8,300 2,778 Climbing FlightAware ADS-B
Fri 09:37:28 AM 25.6500 -80.4490 184° South 289 333 9,600 2,000 Climbing FlightAware ADS-B
Fri 09:38:13 AM 25.5860 -80.4570 186° South 327 376 10,800 1,906 Climbing FlightAware ADS-B
Fri 09:38:53 AM 25.5220 -80.4640 186° South 356 410 12,300 2,684 Climbing FlightAware ADS-B
Fri 09:39:29 AM 25.4660 -80.4830 197° South 361 415 14,200 3,040 Climbing FlightAware ADS-B
Fri 09:40:08 AM 25.4080 -80.5210 211° Southwest 372 428 16,100 2,747 Climbing FlightAware ADS-B
Fri 09:40:52 AM 25.3400 -80.5660 211° Southwest 393 452 18,000 2,682 Climbing FlightAware ADS-B
Fri 09:41:33 AM 25.2770 -80.6070 210° Southwest 397 457 19,900 2,700 Climbing FlightAware ADS-B
Fri 09:42:12 AM 25.2130 -80.6480 210° Southwest 413 475 21,600 2,471 Climbing FlightAware ADS-B
Fri 09:42:58 AM 25.1350 -80.6990 211° Southwest 427 491 23,400 2,259 Climbing FlightAware ADS-B
Fri 09:43:37 AM 25.0650 -80.7450 211° Southwest 431 496 24,800 2,357 Climbing FlightAware ADS-B
Fri 09:44:22 AM 24.9840 -80.7970 210° Southwest 434 499 26,700 2,195 Climbing FlightAware ADS-B
Fri 09:44:59 AM 24.9220 -80.8370 210° Southwest 449 517 27,800 1,920 Climbing FlightAware ADS-B
Fri 09:45:37 AM 24.8480 -80.8850 210° Southwest 450 518 29,100 1,846 Climbing FlightAware ADS-B
Fri 09:46:17 AM 24.7750 -80.9320 210° Southwest 466 536 30,200 1,520 Climbing FlightAware ADS-B
Fri 09:46:52 AM 24.7100 -80.9740 210° Southwest 467 537 31,000 1,835 Climbing FlightAware ADS-B
Fri 09:47:42 AM 24.6150 -81.0360 211° Southwest 465 535 32,800 1,976 Climbing FlightAware ADS-B
Fri 09:48:17 AM 24.5490 -81.0770 209° Southwest 469 540 33,800 1,630 Climbing FlightAware ADS-B
Fri 09:49:03 AM 24.4640 -81.1270 208° Southwest 464 534 35,000 847 Climbing FlightAware ADS-B
Fri 09:49:42 AM 24.3820 -81.1470 193° South 457 526 35,000  Level FlightAware ADS-B
Fri 09:50:27 AM 24.2830 -81.1650 189° South 458 527 35,000  Level FlightAware ADS-B
Fri 09:51:07 AM 24.1980 -81.1810 190° South 458 527 35,000  Level FlightAware ADS-B
Fri 09:51:43 AM 24.1210 -81.1950 189° South 459 528 35,000  Level FlightAware ADS-B
Fri 09:52:27 AM 24.0270 -81.2120 189° South 461 531 35,000  Level FlightAware ADS-B
Fri 09:53:07 AM 23.9420 -81.2310 192° South 463 533 35,000  Level FlightAware ADS-B
Fri 09:53:42 AM 23.8670 -81.2530 195° South 472 543 35,000  Level FlightAware ADS-B
Fri 09:54:27 AM 23.7730 -81.2830 196° South 473 544 35,000  Level FlightAware ADS-B
Fri 09:55:07 AM 23.6880 -81.3110 197° South 466 536 35,000  Level FlightAware ADS-B
Fri 09:55:43 AM 23.6130 -81.3340 196° South 465 535 35,000  Level FlightAware ADS-B
Fri 09:56:22 AM 23.5380 -81.3570 196° South 472 543 35,000  Level FlightAware ADS-B
Fri 09:57:07 AM 23.4370 -81.3880 196° South 470 541 35,000  Level FlightAware ADS-B
Fri 09:57:47 AM 23.3540 -81.4140 196° South 470 541 35,000  Level FlightAware ADS-B
Fri 09:58:27 AM 23.2670 -81.4410 196° South 469 540 35,000  Level FlightAware ADS-B
Fri 09:59:07 AM 23.1860 -81.4660 196° South 469 540 35,000  Level FlightAware ADS-B
Fri 09:59:47 AM 23.1060 -81.4910 196° South 468 539 35,000  Level FlightAware ADS-B
Fri 10:00:27 AM 23.0180 -81.5180 196° South 467 537 35,000  Level FlightAware ADS-B
Fri 10:01:21 AM 22.9160 -81.5500 196° South 467 537 35,000  Level FlightAware ADS-B
Fri 10:02:10 AM 22.8200 -81.5800 196° South 468 539 35,000  Level FlightAware ADS-B
Fri 10:02:46 AM 22.7560 -81.6000 196° South 468 539 35,000  Level FlightAware ADS-B
Fri 10:03:35 AM 22.6700 -81.6270 196° South 468 539 35,000  Level FlightAware ADS-B
Fri 10:04:11 AM 22.6060 -81.6470 196° South 468 539 35,000  Level FlightAware ADS-B
Fri 10:05:11 AM 22.5000 -81.6800 196° South 468 539 35,000  Level FlightAware ADS-B
Fri 10:05:47 AM 22.4360 -81.6990 195° South 468 539 35,000  Level FlightAware ADS-B
Fri 10:06:23 AM 22.3720 -81.7190 196° South 468 539 35,000  Level FlightAware ADS-B
Fri 10:07:36 AM 22.2430 -81.7590 196° South 468 539 35,000  Level FlightAware ADS-B
Fri 10:08:24 AM 22.1580 -81.7850 196° South 468 539 35,000  Level FlightAware ADS-B
Fri 10:09:36 AM 22.0310 -81.8250 196° South 468 539 35,000  Level FlightAware ADS-B
Fri 10:10:25 AM 21.9440 -81.8520 196° South 468 539 35,000  Level FlightAware ADS-B
Fri 10:11:13 AM 21.8590 -81.8780 196° South 468 539 35,000  Level FlightAware ADS-B
Fri 10:13:00 AM 21.6727 -81.9654 204° Southwest  Level Estimated
Fri 10:14:00 AM 21.5683 -82.0143 204° Southwest  Level Estimated
Fri 10:15:00 AM 21.4638 -82.0631 204° Southwest  Level Estimated
Fri 10:16:00 AM 21.3593 -82.1118 203° Southwest  Level Estimated
Fri 10:17:00 AM 21.2548 -82.1605 203° Southwest  Level Estimated
Fri 10:18:00 AM 21.1503 -82.2091 203° Southwest  Level Estimated
Fri 10:19:00 AM 21.0457 -82.2577 203° Southwest  Level Estimated
Fri 10:20:00 AM 20.9412 -82.3061 203° Southwest  Level Estimated
Fri 10:21:00 AM 20.8366 -82.3545 203° Southwest  Level Estimated
Fri 10:22:00 AM 20.7321 -82.4029 203° Southwest  Level Estimated
Fri 10:23:00 AM 20.6275 -82.4511 203° Southwest  Level Estimated
Fri 10:24:00 AM 20.5229 -82.4993 203° Southwest  Level Estimated
Fri 10:25:00 AM 20.4182 -82.5475 203° Southwest  Level Estimated
Fri 10:26:00 AM 20.3136 -82.5955 203° Southwest  Level Estimated
Fri 10:27:00 AM 20.2090 -82.6435 203° Southwest  Level Estimated
Fri 10:28:00 AM 20.1043 -82.6915 203° Southwest  Level Estimated
Fri 10:29:00 AM 19.9997 -82.7394 203° Southwest  Level Estimated
Fri 10:30:00 AM 19.8950 -82.7872 203° Southwest  Level Estimated
Fri 10:31:00 AM 19.7903 -82.8349 203° Southwest  Level Estimated
Fri 10:32:00 AM 19.6856 -82.8826 203° Southwest  Level Estimated
Fri 10:33:00 AM 19.5809 -82.9303 203° Southwest  Level Estimated
Fri 10:34:00 AM 19.4761 -82.9778 203° Southwest  Level Estimated
Fri 10:35:00 AM 19.3714 -83.0253 203° Southwest  Level Estimated
Fri 10:36:00 AM 19.2666 -83.0728 203° Southwest  Level Estimated
Fri 10:37:00 AM 19.1619 -83.1201 203° Southwest  Level Estimated
Fri 10:38:00 AM 19.0571 -83.1675 203° Southwest  Level Estimated
Fri 10:39:00 AM 18.9523 -83.2147 203° Southwest  Level Estimated
Fri 10:40:00 AM 18.8475 -83.2619 203° Southwest  Level Estimated
Fri 10:41:00 AM 18.7427 -83.3091 203° Southwest  Level Estimated
Fri 10:42:00 AM 18.6378 -83.3562 203° Southwest  Level Estimated
Fri 10:43:00 AM 18.5330 -83.4032 203° Southwest  Level Estimated
Fri 10:44:00 AM 18.4282 -83.4502 203° Southwest  Level Estimated
Fri 10:45:00 AM 18.3233 -83.4971 203° Southwest  Level Estimated
Fri 10:46:00 AM 18.2184 -83.5439 203° Southwest  Level Estimated
Fri 10:47:00 AM 18.1135 -83.5907 203° Southwest  Level Estimated
Fri 10:48:00 AM 18.0086 -83.6375 203° Southwest  Level Estimated
Fri 10:49:00 AM 17.9037 -83.6842 203° Southwest  Level Estimated
Fri 10:50:00 AM 17.7988 -83.7308 203° Southwest  Level Estimated
Fri 10:51:00 AM 17.6939 -83.7774 203° Southwest  Level Estimated
Fri 10:52:00 AM 17.5889 -83.8239 203° Southwest  Level Estimated
Fri 10:53:00 AM 17.4840 -83.8704 203° Southwest  Level Estimated
Fri 10:54:00 AM 17.3790 -83.9168 203° Southwest  Level Estimated
Fri 10:55:00 AM 17.2740 -83.9631 203° Southwest  Level Estimated
Fri 10:56:00 AM 17.1691 -84.0095 203° Southwest  Level Estimated
Fri 10:57:00 AM 17.0641 -84.0557 203° Southwest  Level Estimated
Fri 10:58:00 AM 16.9591 -84.1019 203° Southwest  Level Estimated
Fri 10:59:00 AM 16.8540 -84.1481 203° Southwest  Level Estimated
Fri 11:00:00 AM 16.7490 -84.1942 203° Southwest  Level Estimated
Fri 11:01:00 AM 16.6440 -84.2402 203° Southwest  Level Estimated
Fri 11:02:00 AM 16.5389 -84.2862 203° Southwest  Level Estimated
Fri 11:03:00 AM 16.4339 -84.3322 203° Southwest  Level Estimated
Fri 11:04:00 AM 16.3288 -84.3781 203° Southwest  Level Estimated
Fri 11:05:00 AM 16.2237 -84.4239 203° Southwest  Level Estimated
Fri 11:06:00 AM 16.1186 -84.4697 203° Southwest  Level Estimated
Fri 11:07:00 AM 16.0135 -84.5155 203° Southwest  Level Estimated
Fri 11:08:00 AM 15.9084 -84.5612 203° Southwest  Level Estimated
Fri 11:09:00 AM 15.8033 -84.6068 203° Southwest  Level Estimated
Fri 11:10:00 AM 15.6982 -84.6525 203° Southwest  Level Estimated
Fri 11:11:00 AM 15.5931 -84.6980 203° Southwest  Level Estimated
Fri 11:12:00 AM 15.4879 -84.7435 203° Southwest  Level Estimated
Fri 11:13:00 AM 15.3828 -84.7890 203° Southwest  Level Estimated
Fri 11:14:00 AM 15.2776 -84.8344 203° Southwest  Level Estimated
Fri 11:15:00 AM 15.1724 -84.8798 203° Southwest  Level Estimated
Fri 11:16:00 AM 15.0673 -84.9252 203° Southwest  Level Estimated
Fri 11:17:00 AM 14.9621 -84.9705 203° Southwest  Level Estimated
Fri 11:18:00 AM 14.8569 -85.0157 203° Southwest  Level Estimated
Fri 11:19:00 AM 14.7517 -85.0609 203° Southwest  Level Estimated
Fri 11:20:00 AM 14.6464 -85.1061 203° Southwest  Level Estimated
Fri 11:21:00 AM 14.5412 -85.1512 203° Southwest  Level Estimated
Fri 11:22:00 AM 14.4360 -85.1963 203° Southwest  Level Estimated
Fri 11:23:00 AM 14.3308 -85.2413 203° Southwest  Level Estimated
Fri 11:24:00 AM 14.2255 -85.2863 203° Southwest  Level Estimated
Fri 11:25:00 AM 14.1202 -85.3312 202° Southwest  Level Estimated
Fri 11:26:00 AM 14.0150 -85.3761 202° Southwest  Level Estimated
Fri 11:27:00 AM 13.9097 -85.4210 202° Southwest  Level Estimated
Fri 11:28:00 AM 13.8044 -85.4658 202° Southwest  Level Estimated
Fri 11:29:00 AM 13.6991 -85.5106 202° Southwest  Level Estimated
Fri 11:30:00 AM 13.5938 -85.5553 202° Southwest  Level Estimated
Fri 11:31:00 AM 13.4885 -85.6000 202° Southwest  Level Estimated
Fri 11:32:00 AM 13.3832 -85.6447 202° Southwest  Level Estimated
Fri 11:33:00 AM 13.2779 -85.6893 202° Southwest  Level Estimated
Fri 11:34:00 AM 13.1726 -85.7339 202° Southwest  Level Estimated
Fri 11:35:00 AM 13.0672 -85.7784 202° Southwest  Level Estimated
Fri 11:36:00 AM 12.9619 -85.8229 202° Southwest  Level Estimated
Fri 11:37:00 AM 12.8565 -85.8674 202° Southwest  Level Estimated
Fri 11:38:00 AM 12.7512 -85.9118 202° Southwest  Level Estimated
Fri 11:39:00 AM 12.6458 -85.9562 202° Southwest  Level Estimated
Fri 11:40:00 AM 12.5404 -86.0006 202° Southwest  Level Estimated
Fri 11:41:00 AM 12.4350 -86.0449 202° Southwest  Level Estimated
Fri 11:42:00 AM 12.3296 -86.0892 202° Southwest  Level Estimated
Fri 11:43:00 AM 12.2242 -86.1335 202° Southwest  Level Estimated
Fri 11:44:00 AM 12.1415 -86.1682 202° Southwest  Level Estimated
Fri 11:45:00 AM 12.1415 -86.1682 26° Northeast  Level Estimated
Fri 11:46:00 AM 12.1415 -86.1682 26° Northeast  Level Estimated
Fri 11:47:00 AM 12.1415 -86.1682 26° Northeast  Level Estimated
Fri 11:48:00 AM 12.1415 -86.1682 26° Northeast  Level Estimated
Fri 11:49:00 AM 12.1415 -86.1682 26° Northeast  Level Estimated
Fri 11:50:00 AM 12.1415 -86.1682 26° Northeast  Level Estimated
Fri 11:51:00 AM 12.1415 -86.1682 26° Northeast  Level Estimated
Fri 11:52:00 AM 12.1415 -86.1682 26° Northeast  Level Estimated
Fri 11:53:00 AM 12.1415 -86.1682 26° Northeast  Level Estimated
Fri 11:54:00 AM 12.1415 -86.1682 26° Northeast  Level Estimated
Fri 11:55:00 AM 12.1415 -86.1682 26° Northeast  Level Estimated
Fri 11:56:00 AM 12.1415 -86.1682 26° Northeast  Level Estimated
Fri 11:57:00 AM 12.1415 -86.1682 26° Northeast  Level Estimated
Fri 11:58:00 AM 12.1415 -86.1682 26° Northeast  Level Estimated

Login

Don't have an account? Register now (free) for customized features, flight alerts, and more!